Time;durP1;ratioP1;P1;durP2;ratioP2;P2;SDS_P1;SDS_P2;PMS_P1;PMS_P2;Temp;Humidity;BMP_temperature;BMP_pressure;BME280_temperature;BME280_humidity;BME280_pressure;Samples;Min_cycle;Max_cycle;Signal;HPM_P1;HPM_P2
2022/03/01 00:02:15;;;;;;;;;;;9.90;98.00;;;;;;4997781;28;19914;-90
2022/03/01 00:04:40;;;;;;;;;;;10.00;97.80;;;;;;4997119;28;19905;-89
2022/03/01 00:07:07;;;;;;;;;;;10.10;97.50;;;;;;4996215;28;19914;-90
2022/03/01 00:09:34;;;;;;;;;;;10.00;97.50;;;;;;4996418;28;19997;-88
2022/03/01 00:11:59;;;;;;;;;;;10.00;97.60;;;;;;4996794;28;19906;-90
2022/03/01 00:14:25;;;;;;;;;;;10.00;97.50;;;;;;4996432;28;20275;-90
2022/03/01 00:16:51;;;;;;;;;;;10.00;97.50;;;;;;4994369;28;19906;-90
2022/03/01 00:19:29;;;;;;;;;;;10.00;97.80;;;;;;4996229;28;19968;-89
2022/03/01 00:21:55;;;;;;;;;;;10.10;97.60;;;;;;4995303;28;19975;-90
2022/03/01 00:24:21;;;;;;;;;;;10.10;97.40;;;;;;4996566;28;19906;-90
2022/03/01 00:26:47;;;;;;;;;;;10.00;97.40;;;;;;5006266;28;19925;-90
2022/03/01 00:29:13;;;;;;;;;;;10.00;97.50;;;;;;5018358;28;19898;-86
2022/03/01 00:31:38;;;;;;;;;;;9.90;97.50;;;;;;5015804;28;19914;-89
2022/03/01 00:34:04;;;;;;;;;;;10.00;97.60;;;;;;4996751;28;19968;-89
2022/03/01 00:36:30;;;;;;;;;;;10.00;97.80;;;;;;4996161;28;20331;-89
2022/03/01 00:38:56;;;;;;;;;;;10.00;97.70;;;;;;4996005;28;19913;-90
2022/03/01 00:41:22;;;;;;;;;;;10.00;97.70;;;;;;4994912;28;19905;-90
2022/03/01 00:43:48;;;;;;;;;;;9.90;97.90;;;;;;4995784;28;19920;-90
2022/03/01 00:46:13;;;;;;;;;;;9.90;97.80;;;;;;4995418;28;19961;-89
2022/03/01 00:48:39;;;;;;;;;;;9.90;98.00;;;;;;4994130;28;19906;-89
2022/03/01 00:51:06;;;;;;;;;;;9.90;98.00;;;;;;4994212;28;19922;-89
2022/03/01 00:53:31;;;;;;;;;;;9.80;98.10;;;;;;4995975;28;19945;-90
2022/03/01 00:55:58;;;;;;;;;;;9.80;98.20;;;;;;5000205;28;19920;-88
2022/03/01 00:58:39;;;;;;;;;;;9.80;98.20;;;;;;5015363;28;19948;-89
2022/03/01 01:01:07;;;;;;;;;;;9.80;98.40;;;;;;5015367;28;19916;-87
2022/03/01 01:03:33;;;;;;;;;;;9.80;98.40;;;;;;5014479;28;19983;-88
2022/03/01 01:05:59;;;;;;;;;;;9.80;98.50;;;;;;5017310;28;20346;-89
2022/03/01 01:11:05;;;;;;;;;;;9.70;98.50;;;;;;5024600;22;19987;-88
2022/03/01 01:13:31;;;;;;;;;;;9.80;98.60;;;;;;4997251;28;19975;-89
2022/03/01 01:15:57;;;;;;;;;;;9.80;99.00;;;;;;5013664;28;19921;-88
2022/03/01 01:18:23;;;;;;;;;;;9.80;98.70;;;;;;4996159;28;19917;-88
2022/03/01 01:20:49;;;;;;;;;;;9.80;98.80;;;;;;4996314;28;19906;-89
2022/03/01 01:23:24;;;;;;;;;;;9.70;99.10;;;;;;5013743;28;19987;-89
2022/03/01 01:25:50;;;;;;;;;;;9.80;98.80;;;;;;4995779;28;20365;-89
2022/03/01 01:28:16;;;;;;;;;;;9.70;99.10;;;;;;5013964;28;19997;-89
2022/03/01 01:30:42;;;;;;;;;;;9.70;99.30;;;;;;5014058;28;19948;-89
2022/03/01 01:33:08;;;;;;;;;;;9.70;99.10;;;;;;5013945;28;19952;-89
2022/03/01 01:35:34;;;;;;;;;;;9.70;98.90;;;;;;5013391;28;19905;-89
2022/03/01 01:38:00;;;;;;;;;;;9.70;99.20;;;;;;5013379;28;19905;-89
2022/03/01 01:40:28;;;;;;;;;;;9.70;99.10;;;;;;4995656;28;20042;-89
2022/03/01 01:42:54;;;;;;;;;;;9.70;99.00;;;;;;4995577;28;19906;-89
2022/03/01 01:45:20;;;;;;;;;;;9.70;99.20;;;;;;5013311;28;20008;-89
2022/03/01 01:47:47;;;;;;;;;;;9.70;99.20;;;;;;4995325;28;19905;-88
2022/03/01 01:50:13;;;;;;;;;;;9.70;98.90;;;;;;5013656;28;19996;-88
2022/03/01 01:52:39;;;;;;;;;;;9.70;99.00;;;;;;5013064;28;20016;-88
2022/03/01 01:55:05;;;;;;;;;;;9.70;99.10;;;;;;5013212;28;19975;-89
2022/03/01 01:57:40;;;;;;;;;;;9.70;99.20;;;;;;4995232;28;19916;-89
2022/03/01 02:00:07;;;;;;;;;;;9.70;99.20;;;;;;5013208;28;19912;-89
2022/03/01 02:02:32;;;;;;;;;;;9.60;99.20;;;;;;4995186;28;19909;-88
2022/03/01 02:04:59;;;;;;;;;;;9.60;99.30;;;;;;4995082;28;20048;-83
2022/03/01 02:07:25;;;;;;;;;;;9.50;99.40;;;;;;5012552;28;19909;-89
2022/03/01 02:09:51;;;;;;;;;;;9.60;99.30;;;;;;4992998;28;19921;-89
2022/03/01 02:12:17;;;;;;;;;;;9.60;99.40;;;;;;4991377;28;19910;-89
2022/03/01 02:14:44;;;;;;;;;;;9.60;99.30;;;;;;4993277;28;19972;-88
2022/03/01 02:17:10;;;;;;;;;;;9.60;99.10;;;;;;4991325;28;19953;-89
2022/03/01 02:19:36;;;;;;;;;;;9.60;99.10;;;;;;4992715;28;19963;-89
2022/03/01 02:22:02;;;;;;;;;;;9.60;98.80;;;;;;4991519;28;19909;-87
2022/03/01 02:24:29;;;;;;;;;;;9.60;98.80;;;;;;4991560;28;20013;-89
2022/03/01 02:26:55;;;;;;;;;;;9.60;98.90;;;;;;4991777;28;20366;-90
2022/03/01 02:29:21;;;;;;;;;;;9.60;98.80;;;;;;4992704;28;20282;-89
2022/03/01 02:31:47;;;;;;;;;;;9.60;98.60;;;;;;4992854;28;19933;-89
2022/03/01 02:34:13;;;;;;;;;;;9.60;98.70;;;;;;4993386;28;19909;-89
2022/03/01 02:36:39;;;;;;;;;;;9.60;98.70;;;;;;4992906;28;19905;-89
2022/03/01 02:39:05;;;;;;;;;;;9.50;98.80;;;;;;4992852;28;19955;-89
2022/03/01 02:41:30;;;;;;;;;;;9.50;98.70;;;;;;4992657;28;19924;-89
2022/03/01 02:43:56;;;;;;;;;;;9.50;98.90;;;;;;4992741;28;19913;-89
2022/03/01 02:46:23;;;;;;;;;;;9.50;98.50;;;;;;4992874;28;19914;-87
2022/03/01 02:48:48;;;;;;;;;;;9.50;98.60;;;;;;4991164;28;19964;-88
2022/03/01 02:51:14;;;;;;;;;;;9.40;98.90;;;;;;4991249;28;19906;-88
2022/03/01 02:53:40;;;;;;;;;;;9.40;98.70;;;;;;4992567;28;20022;-88
2022/03/01 02:56:07;;;;;;;;;;;9.40;98.90;;;;;;4991360;28;19936;-89
2022/03/01 02:58:32;;;;;;;;;;;9.40;99.10;;;;;;4992364;28;19937;-88
2022/03/01 03:00:58;;;;;;;;;;;9.40;98.60;;;;;;4992130;28;20336;-88
2022/03/01 03:03:24;;;;;;;;;;;9.30;98.90;;;;;;4991009;28;19939;-88
2022/03/01 03:05:50;;;;;;;;;;;9.30;98.90;;;;;;4991580;28;20354;-90
2022/03/01 03:08:16;;;;;;;;;;;9.20;99.00;;;;;;4992499;28;19910;-89
2022/03/01 03:10:41;;;;;;;;;;;9.20;98.90;;;;;;5008094;28;19928;-88
2022/03/01 03:13:07;;;;;;;;;;;9.20;99.00;;;;;;5011950;28;19999;-88
2022/03/01 03:15:33;;;;;;;;;;;9.20;98.80;;;;;;5012040;28;19928;-88
2022/03/01 03:18:08;;;;;;;;;;;9.10;98.80;;;;;;5011850;28;19928;-90
2022/03/01 03:20:34;;;;;;;;;;;9.10;99.10;;;;;;5012506;28;19905;-90
2022/03/01 03:23:00;;;;;;;;;;;9.20;99.00;;;;;;5011027;28;20044;-88
2022/03/01 03:25:26;;;;;;;;;;;9.10;98.90;;;;;;4996797;28;19914;-90
2022/03/01 03:27:52;;;;;;;;;;;9.10;98.90;;;;;;4997231;28;19948;-90
2022/03/01 03:30:18;;;;;;;;;;;9.10;99.10;;;;;;4997613;28;19909;-90
2022/03/01 03:32:43;;;;;;;;;;;9.10;99.00;;;;;;4998008;28;19906;-90
2022/03/01 03:35:10;;;;;;;;;;;9.10;99.00;;;;;;4998010;28;19905;-89
2022/03/01 03:37:38;;;;;;;;;;;9.10;99.10;;;;;;5013940;28;19905;-89
2022/03/01 03:40:04;;;;;;;;;;;9.00;99.10;;;;;;5015768;28;20386;-90
2022/03/01 03:42:30;;;;;;;;;;;9.00;98.90;;;;;;5015400;28;19905;-89
2022/03/01 03:44:56;;;;;;;;;;;9.00;98.90;;;;;;5015522;28;19906;-89
2022/03/01 03:47:22;;;;;;;;;;;8.90;99.10;;;;;;5015860;28;19913;-88
2022/03/01 03:49:48;;;;;;;;;;;8.90;99.10;;;;;;5015693;28;19905;-90
2022/03/01 03:52:14;;;;;;;;;;;8.90;99.40;;;;;;5015185;28;19905;-89
2022/03/01 03:54:39;;;;;;;;;;;8.90;99.20;;;;;;4997690;28;19925;-90
2022/03/01 03:57:08;;;;;;;;;;;9.00;99.00;;;;;;5015833;28;20373;-90
2022/03/01 03:59:34;;;;;;;;;;;9.00;99.00;;;;;;5016307;28;19906;-89
2022/03/01 04:02:01;;;;;;;;;;;9.00;99.00;;;;;;5017743;28;19995;-89
2022/03/01 04:04:27;;;;;;;;;;;8.90;99.20;;;;;;5017740;28;20003;-89
2022/03/01 04:06:53;;;;;;;;;;;8.80;99.30;;;;;;5016699;28;20421;-88
2022/03/01 04:09:21;;;;;;;;;;;8.80;99.30;;;;;;5016560;28;19910;-88
2022/03/01 04:11:47;;;;;;;;;;;8.80;99.30;;;;;;5016439;28;19909;-89
2022/03/01 04:14:13;;;;;;;;;;;8.90;99.20;;;;;;4998018;28;19975;-90
2022/03/01 04:16:42;;;;;;;;;;;8.80;99.20;;;;;;5015638;28;19905;-90
2022/03/01 04:19:08;;;;;;;;;;;8.80;99.40;;;;;;4997946;28;20329;-89
2022/03/01 04:21:34;;;;;;;;;;;8.70;99.60;;;;;;5016598;28;19916;-90
2022/03/01 04:24:00;;;;;;;;;;;8.60;99.70;;;;;;5019084;28;19905;-90
2022/03/01 04:26:26;;;;;;;;;;;8.70;99.30;;;;;;5019720;28;19921;-90
2022/03/01 04:28:54;;;;;;;;;;;8.70;99.30;;;;;;5021349;28;19921;-89
2022/03/01 04:31:21;;;;;;;;;;;8.70;99.30;;;;;;5021299;28;19905;-90
2022/03/01 04:33:47;;;;;;;;;;;8.60;99.50;;;;;;5017979;28;19905;-89
2022/03/01 04:36:13;;;;;;;;;;;8.60;99.40;;;;;;5016537;28;19909;-89
2022/03/01 04:38:39;;;;;;;;;;;8.50;99.70;;;;;;5015851;28;19913;-90
2022/03/01 04:41:05;;;;;;;;;;;8.50;99.60;;;;;;4997601;28;19951;-88
2022/03/01 04:43:31;;;;;;;;;;;8.50;99.60;;;;;;5014883;28;19906;-88
2022/03/01 04:45:57;;;;;;;;;;;8.60;99.90;;;;;;5015418;28;19921;-87
2022/03/01 04:48:23;;;;;;;;;;;8.60;99.80;;;;;;5015048;28;20000;-87
2022/03/01 04:50:50;;;;;;;;;;;8.60;99.50;;;;;;5015182;28;19952;-87
2022/03/01 04:53:16;;;;;;;;;;;8.50;99.60;;;;;;5013578;28;20352;-87
2022/03/01 04:55:42;;;;;;;;;;;8.50;99.60;;;;;;5014917;28;20362;-87
2022/03/01 04:58:08;;;;;;;;;;;8.50;99.60;;;;;;5015063;28;19916;-88
2022/03/01 05:00:34;;;;;;;;;;;8.60;99.60;;;;;;5015324;28;19905;-87
2022/03/01 05:03:02;;;;;;;;;;;8.60;99.90;;;;;;5014656;28;19992;-88
2022/03/01 05:05:28;;;;;;;;;;;8.50;99.70;;;;;;5014694;28;19913;-88
2022/03/01 05:07:55;;;;;;;;;;;8.50;99.80;;;;;;5015357;28;19909;-88
2022/03/01 05:10:21;;;;;;;;;;;8.50;99.90;;;;;;5014432;28;19924;-89
2022/03/01 05:12:52;;;;;;;;;;;8.40;99.90;;;;;;5014734;28;19912;-84
2022/03/01 05:15:18;;;;;;;;;;;8.40;99.90;;;;;;5014537;28;20017;-87
2022/03/01 05:17:45;;;;;;;;;;;8.40;99.90;;;;;;5015368;28;19906;-87
2022/03/01 05:20:11;;;;;;;;;;;8.40;99.90;;;;;;5015490;28;20012;-88
2022/03/01 05:22:37;;;;;;;;;;;8.40;99.90;;;;;;5015303;28;19911;-88
2022/03/01 05:25:04;;;;;;;;;;;8.40;99.90;;;;;;4998267;28;20301;-86
2022/03/01 05:27:30;;;;;;;;;;;8.40;99.90;;;;;;5018800;28;20273;-87
2022/03/01 05:29:56;;;;;;;;;;;8.50;99.90;;;;;;5002715;28;19984;-88
2022/03/01 05:32:22;;;;;;;;;;;8.50;99.90;;;;;;5001400;28;19905;-88
2022/03/01 05:34:48;;;;;;;;;;;8.40;99.90;;;;;;5015587;28;20385;-88
2022/03/01 05:37:13;;;;;;;;;;;8.50;99.90;;;;;;5015846;28;19913;-87
2022/03/01 05:39:39;;;;;;;;;;;8.50;99.90;;;;;;5015520;28;20036;-88
2022/03/01 05:42:05;;;;;;;;;;;8.50;99.90;;;;;;5017942;28;19906;-89
2022/03/01 05:44:31;;;;;;;;;;;8.60;99.90;;;;;;4998098;28;19940;-89
2022/03/01 05:46:57;;;;;;;;;;;8.60;99.90;;;;;;5015561;28;19920;-89
2022/03/01 05:49:23;;;;;;;;;;;8.60;99.90;;;;;;5013852;28;20370;-89
2022/03/01 05:51:48;;;;;;;;;;;8.60;99.90;;;;;;5015303;28;19905;-89
2022/03/01 05:54:14;;;;;;;;;;;8.50;99.90;;;;;;5014594;28;19905;-87
2022/03/01 05:56:40;;;;;;;;;;;8.50;99.90;;;;;;5015105;28;19909;-89
2022/03/01 05:59:06;;;;;;;;;;;8.50;99.90;;;;;;5014556;28;19912;-88
2022/03/01 06:01:31;;;;;;;;;;;8.60;99.90;;;;;;5014629;28;19909;-89
2022/03/01 06:03:57;;;;;;;;;;;8.50;99.90;;;;;;5014807;28;19905;-86
2022/03/01 06:06:23;;;;;;;;;;;8.60;99.90;;;;;;5014448;28;19913;-86
2022/03/01 06:08:49;;;;;;;;;;;9.00;99.90;;;;;;5014163;28;19905;-87
2022/03/01 06:11:15;;;;;;;;;;;10.00;99.60;;;;;;5014559;28;20008;-86
2022/03/01 06:13:43;;;;;;;;;;;11.30;97.70;;;;;;5013943;28;19906;-86
2022/03/01 06:16:09;;;;;;;;;;;12.30;95.30;;;;;;5013934;28;20281;-87
2022/03/01 06:18:35;;;;;;;;;;;12.60;94.50;;;;;;5014570;28;19905;-87
2022/03/01 06:21:01;;;;;;;;;;;12.70;94.60;;;;;;5014770;28;19913;-87
2022/03/01 06:23:28;;;;;;;;;;;12.60;94.20;;;;;;5014636;28;19993;-88
2022/03/01 06:25:56;;;;;;;;;;;12.80;94.00;;;;;;5014784;28;19910;-89
2022/03/01 06:28:22;;;;;;;;;;;13.50;93.30;;;;;;5013926;28;19909;-89
2022/03/01 06:30:48;;;;;;;;;;;14.70;92.30;;;;;;5013868;28;19905;-88
2022/03/01 06:33:13;;;;;;;;;;;15.30;91.10;;;;;;5013554;28;19909;-88
2022/03/01 06:35:39;;;;;;;;;;;16.40;89.80;;;;;;5015610;28;19932;-88
2022/03/01 06:38:05;;;;;;;;;;;16.80;88.60;;;;;;5015818;28;19912;-89
2022/03/01 06:40:32;;;;;;;;;;;17.60;86.80;;;;;;5014983;28;20309;-88
2022/03/01 06:42:58;;;;;;;;;;;18.40;84.50;;;;;;5014627;28;19906;-88
2022/03/01 06:45:24;;;;;;;;;;;19.10;82.30;;;;;;5014680;28;20246;-88
2022/03/01 06:47:50;;;;;;;;;;;20.30;79.70;;;;;;5016294;28;19984;-88
2022/03/01 06:50:16;;;;;;;;;;;20.70;77.80;;;;;;5015212;28;19909;-88
2022/03/01 06:52:42;;;;;;;;;;;20.70;76.90;;;;;;5022069;28;19932;-87
2022/03/01 06:55:09;;;;;;;;;;;20.40;77.10;;;;;;5003115;28;19940;-88
2022/03/01 06:57:39;;;;;;;;;;;20.40;77.70;;;;;;5016708;28;20279;-88
2022/03/01 07:00:05;;;;;;;;;;;20.80;77.00;;;;;;5015851;28;19905;-88
2022/03/01 07:02:38;;;;;;;;;;;20.90;76.00;;;;;;5014509;28;20254;-88
2022/03/01 07:05:13;;;;;;;;;;;21.40;74.30;;;;;;5015834;28;20325;-88
2022/03/01 07:07:40;;;;;;;;;;;21.60;73.00;;;;;;5020138;28;19917;-89
2022/03/01 07:10:11;;;;;;;;;;;22.00;72.40;;;;;;5019006;28;19993;-89
2022/03/01 07:12:37;;;;;;;;;;;21.90;71.40;;;;;;5018699;28;19916;-88
2022/03/01 07:15:03;;;;;;;;;;;22.70;70.90;;;;;;5019277;28;20036;-90
2022/03/01 07:17:29;;;;;;;;;;;22.50;70.40;;;;;;5000284;28;19911;-90
2022/03/01 07:19:56;;;;;;;;;;;22.10;70.80;;;;;;5001854;28;19906;-89
2022/03/01 07:22:22;;;;;;;;;;;22.30;70.20;;;;;;5017994;28;19905;-85
2022/03/01 07:24:48;;;;;;;;;;;22.50;70.00;;;;;;5018346;28;19905;-90
2022/03/01 07:27:13;;;;;;;;;;;23.40;69.20;;;;;;5018370;28;19914;-90
2022/03/01 07:29:40;;;;;;;;;;;24.20;66.70;;;;;;5018150;28;19917;-90
2022/03/01 07:32:08;;;;;;;;;;;23.80;66.90;;;;;;5018615;28;19968;-89
2022/03/01 07:34:34;;;;;;;;;;;23.60;67.90;;;;;;5018390;28;19906;-89
2022/03/01 07:37:00;;;;;;;;;;;23.70;65.90;;;;;;5017289;28;19912;-88
2022/03/01 07:39:26;;;;;;;;;;;23.00;67.00;;;;;;5017835;28;20239;-89
2022/03/01 07:41:52;;;;;;;;;;;22.80;68.50;;;;;;5018965;28;19906;-90
2022/03/01 07:44:18;;;;;;;;;;;23.30;66.70;;;;;;5001233;28;19909;-88
2022/03/01 07:46:44;;;;;;;;;;;22.80;66.80;;;;;;5030662;28;19968;-87
2022/03/01 07:49:10;;;;;;;;;;;23.00;66.00;;;;;;5030316;28;19906;-88
2022/03/01 07:51:36;;;;;;;;;;;22.60;66.80;;;;;;5021635;28;19913;-86
2022/03/01 07:54:02;;;;;;;;;;;21.80;67.60;;;;;;5017082;28;19981;-89
2022/03/01 07:56:28;;;;;;;;;;;21.50;67.50;;;;;;5017251;28;19905;-88
2022/03/01 07:58:53;;;;;;;;;;;20.60;68.70;;;;;;5014864;28;20404;-90
2022/03/01 08:01:20;;;;;;;;;;;20.10;68.00;;;;;;5017072;28;19905;-88
2022/03/01 08:03:46;;;;;;;;;;;19.20;68.30;;;;;;5020390;28;19928;-90
2022/03/01 08:06:12;;;;;;;;;;;18.90;69.30;;;;;;5018125;28;20369;-88
2022/03/01 08:08:37;;;;;;;;;;;18.40;69.20;;;;;;4998161;28;19912;-81
2022/03/01 08:11:06;;;;;;;;;;;17.90;68.80;;;;;;5015308;28;20008;-80
2022/03/01 08:13:33;;;;;;;;;;;17.80;69.70;;;;;;5015394;28;19952;-79
2022/03/01 08:15:59;;;;;;;;;;;17.70;70.70;;;;;;5015382;28;20032;-81
2022/03/01 08:18:25;;;;;;;;;;;17.90;71.00;;;;;;5015392;28;20310;-81
2022/03/01 08:20:51;;;;;;;;;;;18.10;71.40;;;;;;5017240;28;19920;-81
2022/03/01 08:23:16;;;;;;;;;;;17.70;71.90;;;;;;5015060;28;19955;-81
2022/03/01 08:25:43;;;;;;;;;;;18.00;73.20;;;;;;5015561;28;20011;-81
2022/03/01 08:28:08;;;;;;;;;;;18.30;73.90;;;;;;5015222;28;19949;-82
2022/03/01 08:30:35;;;;;;;;;;;18.30;73.80;;;;;;5015413;28;19957;-81
2022/03/01 08:33:02;;;;;;;;;;;18.40;73.80;;;;;;5015128;28;20067;-81
2022/03/01 08:35:28;;;;;;;;;;;18.50;73.60;;;;;;5015172;28;20063;-82
2022/03/01 08:37:54;;;;;;;;;;;18.60;73.90;;;;;;5014697;28;19909;-79
2022/03/01 08:40:22;;;;;;;;;;;18.70;71.50;;;;;;5014646;28;19912;-82
2022/03/01 08:42:48;;;;;;;;;;;18.80;71.30;;;;;;4997077;28;19905;-81
2022/03/01 08:45:14;;;;;;;;;;;18.70;70.30;;;;;;5014290;28;20013;-81
2022/03/01 08:47:40;;;;;;;;;;;18.00;71.00;;;;;;5014226;28;19929;-80
2022/03/01 08:50:07;;;;;;;;;;;18.20;72.30;;;;;;5014008;28;19949;-82
2022/03/01 08:52:33;;;;;;;;;;;18.40;72.20;;;;;;5013630;28;20079;-81
2022/03/01 08:54:58;;;;;;;;;;;18.20;76.50;;;;;;5013778;28;20282;-80
2022/03/01 08:57:27;;;;;;;;;;;18.30;75.00;;;;;;5013234;28;19925;-79
2022/03/01 08:59:53;;;;;;;;;;;18.10;74.90;;;;;;5013608;28;19974;-78
2022/03/01 09:02:20;;;;;;;;;;;18.30;74.40;;;;;;5013559;28;19913;-79
2022/03/01 09:04:45;;;;;;;;;;;18.50;78.60;;;;;;5013800;28;19905;-80
2022/03/01 09:07:11;;;;;;;;;;;18.10;74.40;;;;;;5013492;28;19925;-79
2022/03/01 09:09:37;;;;;;;;;;;18.10;73.70;;;;;;5013588;28;19936;-81
2022/03/01 09:12:03;;;;;;;;;;;17.50;74.20;;;;;;5014016;28;20144;-79
2022/03/01 09:14:29;;;;;;;;;;;17.40;74.90;;;;;;5014107;28;19906;-81
2022/03/01 09:17:13;;;;;;;;;;;17.20;74.20;;;;;;4995753;28;19948;-80
2022/03/01 09:19:39;;;;;;;;;;;17.10;75.40;;;;;;5013947;28;19916;-78
2022/03/01 09:22:05;;;;;;;;;;;17.10;73.80;;;;;;5013923;28;19906;-80
2022/03/01 09:24:30;;;;;;;;;;;16.80;76.90;;;;;;5014394;28;19905;-81
2022/03/01 09:27:01;;;;;;;;;;;17.00;76.70;;;;;;5014274;28;20071;-80
2022/03/01 09:29:28;;;;;;;;;;;17.00;76.20;;;;;;5012781;28;19905;-81
2022/03/01 09:31:54;;;;;;;;;;;16.60;76.70;;;;;;5013815;28;19916;-80
2022/03/01 09:34:20;;;;;;;;;;;16.30;77.20;;;;;;5013532;28;20361;-75
2022/03/01 09:36:46;;;;;;;;;;;16.00;78.80;;;;;;5013264;28;19956;-80
2022/03/01 09:39:11;;;;;;;;;;;16.00;78.40;;;;;;5012602;28;19943;-79
2022/03/01 09:41:38;;;;;;;;;;;16.00;78.40;;;;;;5012801;28;19949;-80
2022/03/01 09:44:04;;;;;;;;;;;16.00;78.60;;;;;;5012981;28;19956;-80
2022/03/01 09:46:30;;;;;;;;;;;16.30;79.30;;;;;;5013423;28;19914;-81
2022/03/01 09:48:56;;;;;;;;;;;16.70;76.70;;;;;;5013109;28;19905;-80
2022/03/01 09:51:22;;;;;;;;;;;17.00;76.90;;;;;;5013216;28;20223;-80
2022/03/01 09:53:49;;;;;;;;;;;17.10;75.30;;;;;;5012521;28;19913;-80
2022/03/01 09:56:16;;;;;;;;;;;16.90;76.40;;;;;;5012595;28;19909;-80
2022/03/01 09:58:45;;;;;;;;;;;16.60;77.50;;;;;;5012115;28;19905;-80
2022/03/01 10:01:11;;;;;;;;;;;16.60;77.80;;;;;;5012568;28;20064;-80
2022/03/01 10:03:38;;;;;;;;;;;16.70;77.30;;;;;;5012717;28;19941;-80
2022/03/01 10:06:09;;;;;;;;;;;16.30;77.20;;;;;;5022463;22;19964;-81
2022/03/01 10:08:37;;;;;;;;;;;15.90;77.20;;;;;;5032387;28;19987;-80
2022/03/01 10:11:03;;;;;;;;;;;15.30;78.60;;;;;;5032210;28;19944;-80
2022/03/01 10:13:30;;;;;;;;;;;15.70;78.40;;;;;;5032219;28;20326;-80
2022/03/01 10:16:09;;;;;;;;;;;16.10;78.30;;;;;;5032279;28;20461;-80
2022/03/01 10:18:39;;;;;;;;;;;16.10;77.30;;;;;;5031930;28;19905;-81
2022/03/01 10:21:07;;;;;;;;;;;16.10;77.60;;;;;;5031937;28;19911;-80
2022/03/01 10:23:33;;;;;;;;;;;16.30;77.20;;;;;;5031673;28;19920;-79
2022/03/01 10:26:12;;;;;;;;;;;16.70;77.10;;;;;;5029301;22;19928;-80
2022/03/01 10:28:38;;;;;;;;;;;17.20;76.30;;;;;;5012710;28;19910;-80
2022/03/01 10:31:11;;;;;;;;;;;17.50;76.30;;;;;;5012589;28;20381;-81
2022/03/01 10:33:38;;;;;;;;;;;17.70;76.40;;;;;;4994287;28;19912;-79
2022/03/01 10:36:04;;;;;;;;;;;18.00;75.40;;;;;;5011938;28;20265;-81
2022/03/01 10:38:30;;;;;;;;;;;17.90;78.00;;;;;;5012320;28;19912;-80
2022/03/01 10:40:57;;;;;;;;;;;17.90;78.60;;;;;;5012292;28;20342;-81
2022/03/01 10:46:07;;;;;;;;;;;17.40;81.00;;;;;;5019099;22;20040;-81
2022/03/01 10:48:37;;;;;;;;;;;17.20;83.10;;;;;;5012243;28;19916;-81
2022/03/01 10:51:09;;;;;;;;;;;17.00;82.20;;;;;;5012227;28;20303;-79
2022/03/01 10:53:36;;;;;;;;;;;16.70;79.10;;;;;;5012514;28;20262;-82
2022/03/01 10:56:03;;;;;;;;;;;16.30;81.20;;;;;;5012227;28;20012;-82
2022/03/01 10:58:30;;;;;;;;;;;16.30;83.20;;;;;;5012041;28;20016;-79
2022/03/01 11:01:22;;;;;;;;;;;16.20;83.00;;;;;;4993131;28;19921;-82
2022/03/01 11:03:49;;;;;;;;;;;16.00;83.40;;;;;;5011701;28;20280;-81
2022/03/01 11:06:16;;;;;;;;;;;16.10;84.30;;;;;;5011578;28;19986;-79
2022/03/01 11:08:43;;;;;;;;;;;16.10;81.80;;;;;;5010750;28;19928;-81
2022/03/01 11:11:09;;;;;;;;;;;16.00;82.30;;;;;;5011198;28;19905;-80
2022/03/01 11:13:39;;;;;;;;;;;15.90;82.30;;;;;;5010897;28;20032;-81
2022/03/01 11:16:13;;;;;;;;;;;16.00;80.20;;;;;;5011433;28;19912;-81
2022/03/01 11:19:03;;;;;;;;;;;15.60;81.20;;;;;;5011764;28;20032;-80
2022/03/01 11:21:30;;;;;;;;;;;15.70;80.90;;;;;;4974713;28;20419;-81
2022/03/01 11:23:56;;;;;;;;;;;15.60;80.40;;;;;;5011391;28;19905;-81
2022/03/01 11:26:36;;;;;;;;;;;15.60;80.60;;;;;;5011444;28;20079;-80
2022/03/01 11:29:07;;;;;;;;;;;15.80;80.50;;;;;;5011393;28;19905;-81
2022/03/01 11:31:33;;;;;;;;;;;15.90;79.80;;;;;;5011554;28;20298;-78
2022/03/01 11:34:00;;;;;;;;;;;16.10;79.60;;;;;;4993652;28;19919;-81
2022/03/01 11:36:27;;;;;;;;;;;16.10;79.80;;;;;;5011867;28;19906;-79
2022/03/01 11:38:53;;;;;;;;;;;16.00;81.60;;;;;;5011694;28;20393;-80
2022/03/01 11:41:22;;;;;;;;;;;15.80;84.00;;;;;;4993397;28;19952;-79
2022/03/01 11:43:57;;;;;;;;;;;15.40;84.90;;;;;;5011414;28;19913;-80
2022/03/01 11:46:23;;;;;;;;;;;15.10;86.30;;;;;;5011486;28;20337;-78
2022/03/01 11:48:54;;;;;;;;;;;15.00;87.10;;;;;;5011267;28;19906;-80
2022/03/01 11:51:31;;;;;;;;;;;14.60;87.10;;;;;;5011678;28;19913;-80
2022/03/01 11:53:57;;;;;;;;;;;14.40;88.30;;;;;;5014837;28;20000;-80
2022/03/01 11:56:24;;;;;;;;;;;14.20;89.40;;;;;;5015616;28;19955;-80
2022/03/01 11:58:50;;;;;;;;;;;13.80;90.50;;;;;;5015527;28;19912;-80
2022/03/01 12:01:20;;;;;;;;;;;13.70;90.40;;;;;;5013799;28;19909;-80
2022/03/01 12:04:08;;;;;;;;;;;13.40;90.90;;;;;;5014540;28;19981;-80
2022/03/01 12:06:34;;;;;;;;;;;13.30;91.50;;;;;;4996793;28;19917;-79
2022/03/01 12:09:02;;;;;;;;;;;12.90;91.70;;;;;;5015141;28;20281;-79
2022/03/01 12:11:41;;;;;;;;;;;12.60;92.00;;;;;;5015604;28;19909;-80
2022/03/01 12:14:10;;;;;;;;;;;12.50;92.70;;;;;;5014301;28;19905;-79
2022/03/01 12:16:36;;;;;;;;;;;12.60;93.20;;;;;;5015902;28;19988;-80
2022/03/01 12:19:22;;;;;;;;;;;12.70;92.70;;;;;;4997509;28;19905;-81
2022/03/01 12:21:48;;;;;;;;;;;12.70;91.40;;;;;;4996526;28;20277;-81
2022/03/01 12:24:14;;;;;;;;;;;12.60;91.10;;;;;;5014898;28;19917;-80
2022/03/01 12:26:42;;;;;;;;;;;12.70;91.30;;;;;;5014447;28;19913;-81
2022/03/01 12:29:09;;;;;;;;;;;13.00;91.60;;;;;;5014656;28;19985;-80
2022/03/01 12:31:34;;;;;;;;;;;12.90;90.40;;;;;;5013750;28;19905;-80
2022/03/01 12:34:02;;;;;;;;;;;13.20;90.80;;;;;;5014278;28;19911;-77
2022/03/01 12:36:30;;;;;;;;;;;13.50;90.10;;;;;;4996099;28;19905;-80
2022/03/01 12:38:57;;;;;;;;;;;13.80;88.40;;;;;;4996669;28;19917;-80
2022/03/01 12:41:24;;;;;;;;;;;13.90;87.10;;;;;;5014871;28;20059;-79
2022/03/01 12:43:54;;;;;;;;;;;14.00;85.20;;;;;;5014213;28;20314;-80
2022/03/01 12:46:20;;;;;;;;;;;14.20;83.50;;;;;;5014565;28;20361;-80
2022/03/01 12:48:47;;;;;;;;;;;14.40;82.60;;;;;;5014209;28;19905;-80
2022/03/01 12:51:16;;;;;;;;;;;14.60;82.70;;;;;;5014106;28;20301;-79
2022/03/01 12:54:01;;;;;;;;;;;14.60;82.50;;;;;;5014776;28;19905;-80
2022/03/01 12:56:29;;;;;;;;;;;14.60;84.00;;;;;;5014447;28;19905;-81
2022/03/01 12:58:56;;;;;;;;;;;14.90;84.50;;;;;;5014344;28;19917;-78
2022/03/01 13:01:22;;;;;;;;;;;15.00;84.80;;;;;;5014188;28;20416;-80
2022/03/01 13:03:49;;;;;;;;;;;15.00;86.30;;;;;;5014363;28;20366;-80
2022/03/01 13:06:17;;;;;;;;;;;15.10;84.20;;;;;;5014615;28;19913;-79
2022/03/01 13:08:43;;;;;;;;;;;14.90;84.60;;;;;;5015386;28;19912;-79
2022/03/01 13:11:10;;;;;;;;;;;14.80;82.40;;;;;;5015362;28;19937;-80
2022/03/01 13:13:47;;;;;;;;;;;14.30;81.70;;;;;;5015587;28;19905;-80
2022/03/01 13:16:16;;;;;;;;;;;14.40;83.00;;;;;;5015298;28;19905;-80
2022/03/01 13:18:42;;;;;;;;;;;14.70;82.30;;;;;;5015603;28;19906;-80
2022/03/01 13:21:10;;;;;;;;;;;14.60;82.00;;;;;;5017869;28;19906;-80
2022/03/01 13:23:36;;;;;;;;;;;14.60;81.30;;;;;;4997572;28;19952;-80
2022/03/01 13:26:02;;;;;;;;;;;14.40;80.10;;;;;;5014944;28;20007;-81
2022/03/01 13:28:31;;;;;;;;;;;14.30;80.60;;;;;;5014885;28;19906;-81
2022/03/01 13:30:57;;;;;;;;;;;14.40;80.00;;;;;;5015100;28;19906;-81
2022/03/01 13:33:26;;;;;;;;;;;14.30;79.20;;;;;;5015280;28;19910;-81
2022/03/01 13:35:52;;;;;;;;;;;14.20;80.10;;;;;;5015251;28;19905;-81
2022/03/01 13:38:19;;;;;;;;;;;14.30;80.60;;;;;;5014735;28;19905;-80
2022/03/01 13:40:47;;;;;;;;;;;14.20;81.40;;;;;;5014726;28;19915;-79
2022/03/01 13:43:16;;;;;;;;;;;14.20;81.00;;;;;;5014622;28;20235;-81
2022/03/01 13:45:43;;;;;;;;;;;14.50;81.00;;;;;;5014258;28;20069;-79
2022/03/01 13:48:13;;;;;;;;;;;14.60;80.20;;;;;;5014274;28;19993;-80
2022/03/01 13:50:40;;;;;;;;;;;14.30;79.90;;;;;;5014477;28;19906;-80
2022/03/01 13:53:24;;;;;;;;;;;14.10;79.90;;;;;;5014131;28;20000;-80
2022/03/01 13:55:53;;;;;;;;;;;14.30;81.20;;;;;;5014455;28;19952;-78
2022/03/01 13:58:23;;;;;;;;;;;14.60;82.20;;;;;;5014613;28;19906;-81
2022/03/01 14:00:50;;;;;;;;;;;14.80;79.80;;;;;;5014630;28;19906;-80
2022/03/01 14:03:17;;;;;;;;;;;14.80;78.00;;;;;;5014333;28;19912;-79
2022/03/01 14:05:48;;;;;;;;;;;14.70;76.40;;;;;;5014111;28;19937;-80
2022/03/01 14:08:15;;;;;;;;;;;14.70;74.50;;;;;;5013627;28;20013;-80
2022/03/01 14:10:47;;;;;;;;;;;14.50;74.40;;;;;;5012920;28;20007;-80
2022/03/01 14:13:15;;;;;;;;;;;14.40;73.30;;;;;;4996299;28;19925;-79
2022/03/01 14:15:43;;;;;;;;;;;14.30;73.60;;;;;;5013921;28;20411;-80
2022/03/01 14:18:09;;;;;;;;;;;14.00;77.20;;;;;;5014308;28;20269;-80
2022/03/01 14:20:35;;;;;;;;;;;14.00;78.80;;;;;;4996358;28;19912;-79
2022/03/01 14:23:01;;;;;;;;;;;14.00;80.70;;;;;;5014360;28;19912;-80
2022/03/01 14:25:28;;;;;;;;;;;14.00;82.20;;;;;;5014500;28;20262;-80
2022/03/01 14:27:54;;;;;;;;;;;13.90;84.00;;;;;;5014514;28;20270;-79